createdAt,value
2022-10-30T00:00:43.743Z,19.88
2022-10-30T00:03:14.185Z,19.88
2022-10-30T00:05:43.116Z,19.87
2022-10-30T00:08:13.815Z,19.84
2022-10-30T00:10:40.773Z,19.84
2022-10-30T00:13:07.965Z,19.83
2022-10-30T00:15:34.721Z,19.80
2022-10-30T00:18:01.797Z,19.80
2022-10-30T00:20:28.136Z,19.78
2022-10-30T00:22:54.965Z,19.76
2022-10-30T00:25:21.866Z,19.74
2022-10-30T00:27:48.351Z,19.72
2022-10-30T00:30:15.586Z,19.70
2022-10-30T00:32:42.784Z,19.68
2022-10-30T00:35:10.325Z,19.65
2022-10-30T00:37:36.802Z,19.64
2022-10-30T00:40:04.584Z,19.62
2022-10-30T00:42:31.850Z,19.58
2022-10-30T00:44:59.018Z,19.54
2022-10-30T00:47:30.373Z,19.52
2022-10-30T00:50:17.852Z,19.49
2022-10-30T00:52:51.533Z,19.47
2022-10-30T00:55:22.745Z,19.44
2022-10-30T00:57:50.682Z,19.39
2022-10-30T01:00:19.099Z,19.36
2022-10-30T01:02:45.842Z,19.32
2022-10-30T01:05:17.185Z,19.30
2022-10-30T01:07:43.511Z,19.25
2022-10-30T01:10:10.993Z,19.22
2022-10-30T01:12:38.377Z,19.19
2022-10-30T01:15:05.534Z,19.17
2022-10-30T01:17:49.915Z,19.14
2022-10-30T01:20:22.185Z,19.12
2022-10-30T01:23:03.640Z,19.10
2022-10-30T01:25:56.583Z,19.06
2022-10-30T01:28:22.856Z,19.02
2022-10-30T01:31:06.613Z,19.00
2022-10-30T01:33:46.032Z,18.97
2022-10-30T01:36:25.844Z,18.92
2022-10-30T01:39:14.542Z,18.87
2022-10-30T01:41:41.040Z,18.81
2022-10-30T01:44:16.666Z,18.76
2022-10-30T01:47:07.547Z,18.71
2022-10-30T01:49:59.105Z,18.65
2022-10-30T01:52:39.537Z,18.61
2022-10-30T01:55:36.692Z,18.55
2022-10-30T01:58:21.920Z,18.49
2022-10-30T02:00:57.536Z,18.43
2022-10-30T02:03:24.821Z,18.39
2022-10-30T02:05:52.744Z,18.35
2022-10-30T02:08:21.029Z,18.31
2022-10-30T02:10:49.577Z,18.29
2022-10-30T02:13:16.447Z,18.27
2022-10-30T02:15:44.460Z,18.24
2022-10-30T02:18:11.081Z,18.22
2022-10-30T02:20:37.889Z,18.19
2022-10-30T02:23:06.678Z,18.17
2022-10-30T02:25:33.658Z,18.15
2022-10-30T02:28:00.240Z,18.13
2022-10-30T02:30:26.905Z,18.12
2022-10-30T02:32:53.313Z,18.11
2022-10-30T02:35:19.701Z,18.10
2022-10-30T02:37:48.541Z,18.10
2022-10-30T02:40:14.898Z,18.09
2022-10-30T02:42:41.248Z,18.07
2022-10-30T02:45:08.306Z,18.06
2022-10-30T02:47:34.624Z,18.06
2022-10-30T02:50:01.006Z,18.05
2022-10-30T02:52:27.405Z,18.03
2022-10-30T02:54:53.735Z,18.01
2022-10-30T02:57:20.094Z,18.00
2022-10-30T02:59:46.545Z,17.98
2022-10-30T03:02:12.954Z,17.95
2022-10-30T03:04:39.395Z,17.93
2022-10-30T03:07:05.740Z,17.89
2022-10-30T03:09:32.066Z,17.87
2022-10-30T03:11:58.426Z,17.85
2022-10-30T03:14:24.922Z,17.81
2022-10-30T03:16:52.512Z,17.77
2022-10-30T03:19:19.580Z,17.74
2022-10-30T03:21:46.382Z,17.69
2022-10-30T03:24:12.827Z,17.66
2022-10-30T03:26:39.168Z,17.62
2022-10-30T03:29:05.524Z,17.58
2022-10-30T03:31:32.677Z,17.53
2022-10-30T03:33:59.036Z,17.48
2022-10-30T03:36:26.336Z,17.44
2022-10-30T03:38:52.721Z,17.40
2022-10-30T03:41:19.029Z,17.37
2022-10-30T03:43:45.483Z,17.31
2022-10-30T03:46:11.848Z,17.26
2022-10-30T03:48:38.194Z,17.23
2022-10-30T03:51:04.677Z,17.19
2022-10-30T03:53:31.227Z,17.13
2022-10-30T03:56:00.092Z,17.08
2022-10-30T03:58:28.519Z,17.03
2022-10-30T04:00:55.455Z,17.00
2022-10-30T04:03:21.911Z,16.96
2022-10-30T04:05:50.965Z,16.92
2022-10-30T04:08:17.884Z,16.89
2022-10-30T04:10:45.427Z,16.85
2022-10-30T04:13:14.138Z,16.81
2022-10-30T04:15:40.971Z,16.76
2022-10-30T04:18:13.239Z,16.75
2022-10-30T04:20:39.916Z,16.69
2022-10-30T04:23:08.354Z,16.67
2022-10-30T04:25:35.387Z,16.64
2022-10-30T04:28:02.366Z,16.61
2022-10-30T04:30:31.249Z,16.61
2022-10-30T04:32:58.390Z,16.59
2022-10-30T04:35:27.300Z,16.57
2022-10-30T04:38:05.205Z,16.57
2022-10-30T04:40:34.957Z,16.56
2022-10-30T04:43:02.902Z,16.55
2022-10-30T04:45:29.846Z,16.56
2022-10-30T04:48:04.603Z,16.57
2022-10-30T04:50:32.129Z,16.56
2022-10-30T04:53:03.796Z,16.57
2022-10-30T04:55:30.953Z,16.57
2022-10-30T04:57:59.027Z,16.58
2022-10-30T05:00:27.078Z,16.58
2022-10-30T05:02:53.466Z,16.59
2022-10-30T05:05:20.458Z,16.59
2022-10-30T05:07:46.949Z,16.58
2022-10-30T05:10:18.347Z,16.58
2022-10-30T05:12:45.452Z,16.56
2022-10-30T05:15:13.526Z,16.55
2022-10-30T05:17:40.783Z,16.53
2022-10-30T05:20:07.997Z,16.50
2022-10-30T05:22:34.375Z,16.46
2022-10-30T05:25:00.717Z,16.44
2022-10-30T05:27:27.050Z,16.40
2022-10-30T05:29:53.391Z,16.37
2022-10-30T05:32:19.799Z,16.33
2022-10-30T05:34:46.197Z,16.30
2022-10-30T05:37:12.543Z,16.27
2022-10-30T05:39:38.873Z,16.22
2022-10-30T05:42:08.524Z,16.20
2022-10-30T05:44:59.250Z,16.17
2022-10-30T05:47:22.581Z,16.16
2022-10-30T05:49:48.926Z,16.12
2022-10-30T05:52:15.333Z,16.09
2022-10-30T05:54:41.683Z,16.06
2022-10-30T05:57:08.013Z,16.02
2022-10-30T05:59:34.430Z,15.98
2022-10-30T06:02:00.858Z,15.93
2022-10-30T06:04:27.314Z,15.90
2022-10-30T06:06:53.672Z,15.85
2022-10-30T06:09:20.076Z,15.82
2022-10-30T06:11:46.416Z,15.78
2022-10-30T06:14:12.745Z,15.74
2022-10-30T06:16:39.431Z,15.71
2022-10-30T06:19:05.777Z,15.67
2022-10-30T06:21:32.156Z,15.64
2022-10-30T06:23:58.951Z,15.61
2022-10-30T06:26:25.357Z,15.57
2022-10-30T06:28:51.886Z,15.55
2022-10-30T06:31:18.266Z,15.53
2022-10-30T06:36:11.066Z,15.50
2022-10-30T06:38:37.483Z,15.48
2022-10-30T06:41:03.987Z,15.47
2022-10-30T06:43:30.429Z,15.47
2022-10-30T06:45:59.890Z,15.46
2022-10-30T06:48:26.325Z,15.46
2022-10-30T06:51:00.213Z,15.47
2022-10-30T06:53:27.263Z,15.48
2022-10-30T06:56:00.241Z,15.48
2022-10-30T06:58:27.733Z,15.48
2022-10-30T07:01:10.053Z,15.49
2022-10-30T07:03:36.756Z,15.52
2022-10-30T07:06:03.531Z,15.54
2022-10-30T07:08:29.889Z,15.56
2022-10-30T07:10:58.095Z,15.59
2022-10-30T07:13:24.666Z,15.62
2022-10-30T07:15:51.032Z,15.65
2022-10-30T07:18:17.414Z,15.66
2022-10-30T07:20:43.828Z,15.70
2022-10-30T07:23:10.205Z,15.73
2022-10-30T07:25:36.521Z,15.77
2022-10-30T07:28:03.336Z,15.80
2022-10-30T07:30:29.812Z,15.85
2022-10-30T07:33:02.157Z,15.90
2022-10-30T07:35:29.563Z,15.92
2022-10-30T07:37:55.976Z,15.98
2022-10-30T07:40:22.803Z,16.05
2022-10-30T07:42:49.339Z,16.11
2022-10-30T07:45:15.720Z,16.17
2022-10-30T07:47:43.342Z,16.24
2022-10-30T07:50:10.666Z,16.32
2022-10-30T07:52:37.315Z,16.40
2022-10-30T07:55:04.942Z,16.48
2022-10-30T07:57:35.511Z,16.57
2022-10-30T08:00:04.653Z,16.64
2022-10-30T08:02:31.986Z,16.73
2022-10-30T08:04:58.661Z,16.79
2022-10-30T08:07:29.680Z,16.88
2022-10-30T08:09:56.074Z,16.96
2022-10-30T08:12:22.433Z,17.02
2022-10-30T08:14:49.176Z,17.11
2022-10-30T08:17:15.584Z,17.18
2022-10-30T08:19:41.913Z,17.25
2022-10-30T08:22:08.924Z,17.32
2022-10-30T08:24:35.370Z,17.41
2022-10-30T08:27:02.590Z,17.47
2022-10-30T08:29:28.964Z,17.56
2022-10-30T08:31:55.561Z,17.63
2022-10-30T08:34:22.353Z,17.71
2022-10-30T08:36:52.011Z,17.80
2022-10-30T08:39:19.000Z,17.85
2022-10-30T08:41:45.761Z,17.92
2022-10-30T08:44:12.506Z,17.98
2022-10-30T08:46:38.908Z,18.04
2022-10-30T08:49:05.285Z,18.11
2022-10-30T08:51:35.347Z,18.17
2022-10-30T08:54:01.834Z,18.21
2022-10-30T08:56:28.285Z,18.26
2022-10-30T08:58:54.777Z,18.33
2022-10-30T09:01:21.267Z,18.39
2022-10-30T09:03:47.850Z,18.46
2022-10-30T09:06:14.202Z,18.52
2022-10-30T09:08:40.713Z,18.59
2022-10-30T09:11:07.239Z,18.65
2022-10-30T09:13:33.617Z,18.73
2022-10-30T09:16:01.402Z,18.81
2022-10-30T09:18:29.295Z,18.90
2022-10-30T09:20:55.666Z,18.98
2022-10-30T09:23:22.153Z,19.06
2022-10-30T09:25:48.542Z,19.15
2022-10-30T09:28:14.902Z,19.23
2022-10-30T09:30:41.279Z,19.32
2022-10-30T09:33:09.098Z,19.41
2022-10-30T09:35:36.952Z,19.50
2022-10-30T09:38:03.475Z,19.59
2022-10-30T09:41:03.454Z,19.71
2022-10-30T09:44:00.639Z,19.81
2022-10-30T09:46:45.408Z,19.90
2022-10-30T09:49:41.330Z,20.02
2022-10-30T09:52:32.341Z,20.15
2022-10-30T09:55:32.126Z,20.27
2022-10-30T09:58:12.417Z,20.37
2022-10-30T10:00:44.629Z,20.45
2022-10-30T10:03:42.326Z,20.57
2022-10-30T10:06:15.764Z,20.66
2022-10-30T10:08:46.635Z,20.75
2022-10-30T10:11:25.910Z,20.84
2022-10-30T10:14:09.363Z,20.94
2022-10-30T10:16:39.232Z,21.03
2022-10-30T10:19:20.598Z,21.12
2022-10-30T10:21:57.693Z,21.20
2022-10-30T10:24:32.650Z,21.28
2022-10-30T10:27:23.355Z,21.37
2022-10-30T10:30:11.035Z,21.45
2022-10-30T10:33:08.835Z,21.56
2022-10-30T10:35:52.699Z,21.62
2022-10-30T10:38:37.410Z,21.73
2022-10-30T10:41:18.657Z,21.81
2022-10-30T10:44:00.382Z,21.89
2022-10-30T10:46:49.288Z,22.00
2022-10-30T10:49:32.396Z,22.08
2022-10-30T10:52:07.145Z,22.15
2022-10-30T10:54:42.268Z,22.24
2022-10-30T10:57:21.880Z,22.32
2022-10-30T10:59:54.059Z,22.39
2022-10-30T11:02:26.607Z,22.44
2022-10-30T11:04:59.896Z,22.49
2022-10-30T11:07:45.425Z,22.56
2022-10-30T11:10:14.567Z,22.63
2022-10-30T11:12:41.610Z,22.67
2022-10-30T11:15:49.769Z,22.74
2022-10-30T11:18:16.224Z,22.82
2022-10-30T11:21:03.538Z,22.88
2022-10-30T11:23:35.928Z,22.95
2022-10-30T11:26:03.241Z,23.00
2022-10-30T11:28:41.948Z,23.07
2022-10-30T11:31:24.578Z,23.14
2022-10-30T11:33:51.827Z,23.18
2022-10-30T11:36:22.929Z,23.22
2022-10-30T11:38:50.021Z,23.26
2022-10-30T11:41:18.074Z,23.31
2022-10-30T11:43:45.218Z,23.36
2022-10-30T11:46:21.007Z,23.41
2022-10-30T11:48:54.536Z,23.45
2022-10-30T11:51:39.472Z,23.50
2022-10-30T11:54:07.176Z,23.54
2022-10-30T11:56:35.387Z,23.56
2022-10-30T11:59:04.612Z,23.63
2022-10-30T12:01:39.014Z,23.66
2022-10-30T12:04:22.091Z,23.72
2022-10-30T12:07:08.150Z,23.76
2022-10-30T12:09:45.662Z,23.80
2022-10-30T12:12:24.395Z,23.81
2022-10-30T12:14:52.367Z,23.84
2022-10-30T12:17:20.090Z,23.87
2022-10-30T12:19:52.840Z,23.91
2022-10-30T12:22:30.361Z,23.95
2022-10-30T12:24:58.662Z,23.95
2022-10-30T12:27:25.841Z,23.97
2022-10-30T12:30:08.384Z,24.02
2022-10-30T12:32:45.676Z,24.05
2022-10-30T12:35:22.436Z,24.07
2022-10-30T12:37:52.634Z,24.08
2022-10-30T12:40:24.339Z,24.13
2022-10-30T12:43:03.705Z,24.15
2022-10-30T12:45:41.224Z,24.18
2022-10-30T12:48:27.951Z,24.21
2022-10-30T12:51:21.251Z,24.24
2022-10-30T12:54:04.800Z,24.26
2022-10-30T12:56:38.882Z,24.28
2022-10-30T12:59:39.826Z,24.29
2022-10-30T13:02:32.874Z,24.30
2022-10-30T13:05:05.481Z,24.30
2022-10-30T13:07:51.183Z,24.32
2022-10-30T13:10:25.673Z,24.35
2022-10-30T13:13:02.006Z,24.37
2022-10-30T13:15:33.636Z,24.39
2022-10-30T13:18:13.670Z,24.41
2022-10-30T13:20:40.738Z,24.42
2022-10-30T13:23:20.439Z,24.44
2022-10-30T13:26:09.998Z,24.46
2022-10-30T13:28:46.621Z,24.48
2022-10-30T13:31:34.522Z,24.50
2022-10-30T13:34:16.351Z,24.50
2022-10-30T13:36:50.605Z,24.52
2022-10-30T13:39:26.035Z,24.52
2022-10-30T13:42:01.167Z,24.56
2022-10-30T13:44:56.617Z,24.57
2022-10-30T13:47:42.361Z,24.60
2022-10-30T13:50:25.528Z,24.60
2022-10-30T13:52:57.576Z,24.60
2022-10-30T13:55:34.670Z,24.61
2022-10-30T13:58:24.535Z,24.60
2022-10-30T14:00:59.935Z,24.58
2022-10-30T14:03:59.042Z,24.57
2022-10-30T14:06:30.941Z,24.53
2022-10-30T14:09:27.942Z,24.52
2022-10-30T14:11:56.987Z,24.46
2022-10-30T14:14:23.339Z,24.43
2022-10-30T14:17:08.568Z,24.38
2022-10-30T14:20:13.355Z,24.35
2022-10-30T14:22:41.186Z,24.28
2022-10-30T14:25:15.244Z,24.26
2022-10-30T14:27:41.983Z,24.21
2022-10-30T14:30:20.645Z,24.19
2022-10-30T14:32:51.843Z,24.16
2022-10-30T14:35:39.003Z,24.14
2022-10-30T14:38:08.360Z,24.11
2022-10-30T14:40:38.590Z,24.07
2022-10-30T14:43:32.044Z,24.07
2022-10-30T14:46:04.813Z,24.04
2022-10-30T14:48:53.868Z,24.02
2022-10-30T14:51:28.091Z,23.99
2022-10-30T14:54:18.478Z,23.97
2022-10-30T14:56:49.632Z,23.95
2022-10-30T14:59:15.909Z,23.90
2022-10-30T15:01:52.657Z,23.87
2022-10-30T15:04:34.265Z,23.84
2022-10-30T15:07:19.608Z,23.79
2022-10-30T15:10:06.648Z,23.74
2022-10-30T15:13:07.563Z,23.69
2022-10-30T15:15:34.745Z,23.62
2022-10-30T15:18:18.045Z,23.58
2022-10-30T15:20:49.549Z,23.51
2022-10-30T15:23:31.961Z,23.47
2022-10-30T15:26:06.476Z,23.40
2022-10-30T15:28:36.795Z,23.34
2022-10-30T15:31:06.478Z,23.28
2022-10-30T15:33:37.542Z,23.21
2022-10-30T15:36:05.456Z,23.15
2022-10-30T15:38:31.940Z,23.07
2022-10-30T15:41:01.751Z,23.01
2022-10-30T15:43:42.057Z,22.94
2022-10-30T15:46:10.667Z,22.86
2022-10-30T15:48:40.283Z,22.79
2022-10-30T15:51:16.817Z,22.72
2022-10-30T15:53:43.242Z,22.63
2022-10-30T15:56:30.664Z,22.54
2022-10-30T15:59:03.453Z,22.49
2022-10-30T16:01:33.025Z,22.40
2022-10-30T16:03:59.626Z,22.32
2022-10-30T16:06:31.362Z,22.24
2022-10-30T16:08:58.197Z,22.14
2022-10-30T16:11:26.646Z,22.08
2022-10-30T16:13:53.535Z,21.99
2022-10-30T16:16:27.822Z,21.91
2022-10-30T16:18:58.971Z,21.83
2022-10-30T16:21:29.598Z,21.76
2022-10-30T16:23:58.079Z,21.68
2022-10-30T16:26:35.283Z,21.60
2022-10-30T16:29:13.871Z,21.54
2022-10-30T16:31:43.063Z,21.45
2022-10-30T16:34:16.139Z,21.39
2022-10-30T16:36:43.137Z,21.32
2022-10-30T16:39:15.326Z,21.25
2022-10-30T16:41:43.259Z,21.17
2022-10-30T16:44:12.340Z,21.12
2022-10-30T16:46:42.174Z,21.04
2022-10-30T16:49:16.264Z,20.97
2022-10-30T16:51:43.001Z,20.89
2022-10-30T16:54:20.296Z,20.84
2022-10-30T16:56:48.873Z,20.77
2022-10-30T16:59:24.313Z,20.69
2022-10-30T17:01:57.438Z,20.63
2022-10-30T17:04:25.007Z,20.56
2022-10-30T17:07:04.764Z,20.51
2022-10-30T17:09:36.300Z,20.45
2022-10-30T17:12:15.280Z,20.37
2022-10-30T17:14:43.807Z,20.30
2022-10-30T17:17:23.445Z,20.24
2022-10-30T17:19:56.407Z,20.17
2022-10-30T17:22:24.190Z,20.10
2022-10-30T17:24:50.680Z,20.02
2022-10-30T17:27:46.167Z,19.95
2022-10-30T17:30:34.459Z,19.88
2022-10-30T17:33:24.732Z,19.79
2022-10-30T17:35:51.355Z,19.70
2022-10-30T17:38:18.229Z,19.63
2022-10-30T17:40:44.593Z,19.56
2022-10-30T17:43:16.564Z,19.52
2022-10-30T17:45:44.058Z,19.45
2022-10-30T17:48:18.126Z,19.42
2022-10-30T17:50:44.914Z,19.35
2022-10-30T17:53:23.151Z,19.30
2022-10-30T17:56:03.545Z,19.26
2022-10-30T17:58:31.061Z,19.20
2022-10-30T18:00:58.408Z,19.17
2022-10-30T18:03:24.812Z,19.13
2022-10-30T18:05:52.362Z,19.09
2022-10-30T18:08:18.729Z,19.05
2022-10-30T18:10:45.112Z,19.00
2022-10-30T18:13:13.233Z,18.96
2022-10-30T18:15:44.057Z,18.91
2022-10-30T18:18:10.929Z,18.85
2022-10-30T18:20:38.660Z,18.78
2022-10-30T18:23:31.610Z,18.74
2022-10-30T18:26:00.066Z,18.65
2022-10-30T18:28:26.529Z,18.60
2022-10-30T18:30:58.346Z,18.56
2022-10-30T18:33:25.217Z,18.50
2022-10-30T18:35:51.650Z,18.45
2022-10-30T18:38:18.060Z,18.41
2022-10-30T18:40:46.646Z,18.37
2022-10-30T18:43:14.322Z,18.34
2022-10-30T18:45:41.841Z,18.30
2022-10-30T18:48:08.749Z,18.28
2022-10-30T18:50:35.842Z,18.24
2022-10-30T18:53:02.603Z,18.21
2022-10-30T18:55:34.821Z,18.20
2022-10-30T18:58:01.891Z,18.17
2022-10-30T19:00:39.699Z,18.14
2022-10-30T19:03:16.796Z,18.11
2022-10-30T19:05:48.278Z,18.08
2022-10-30T19:08:15.147Z,18.05
2022-10-30T19:10:43.891Z,18.00
2022-10-30T19:13:20.339Z,17.99
2022-10-30T19:15:49.623Z,17.96
2022-10-30T19:18:17.178Z,17.92
2022-10-30T19:21:03.401Z,17.90
2022-10-30T19:23:30.045Z,17.91
2022-10-30T19:25:56.881Z,17.92
2022-10-30T19:28:23.365Z,17.88
2022-10-30T19:30:50.269Z,17.83
2022-10-30T19:33:18.117Z,17.78
2022-10-30T19:35:44.592Z,17.75
2022-10-30T19:38:12.685Z,17.69
2022-10-30T19:40:40.487Z,17.68
2022-10-30T19:43:07.140Z,17.66
2022-10-30T19:45:34.257Z,17.64
2022-10-30T19:48:04.170Z,17.62
2022-10-30T19:50:34.366Z,17.62
2022-10-30T19:53:02.368Z,17.60
2022-10-30T19:55:31.261Z,17.59
2022-10-30T19:57:59.500Z,17.57
2022-10-30T20:00:27.302Z,17.54
2022-10-30T20:02:55.753Z,17.53
2022-10-30T20:05:24.709Z,17.50
2022-10-30T20:08:00.573Z,17.49
2022-10-30T20:10:28.512Z,17.46
2022-10-30T20:12:54.900Z,17.43
2022-10-30T20:15:22.790Z,17.41
2022-10-30T20:17:49.647Z,17.39
2022-10-30T20:20:19.976Z,17.36
2022-10-30T20:22:46.582Z,17.33
2022-10-30T20:25:13.821Z,17.30
2022-10-30T20:27:41.986Z,17.28
2022-10-30T20:30:13.260Z,17.27
2022-10-30T20:32:39.670Z,17.23
2022-10-30T20:35:10.294Z,17.20
2022-10-30T20:37:37.845Z,17.17
2022-10-30T20:40:04.787Z,17.14
2022-10-30T20:42:36.860Z,17.13
2022-10-30T20:45:04.146Z,17.10
2022-10-30T20:47:30.579Z,17.06
2022-10-30T20:49:56.913Z,17.03
2022-10-30T20:52:23.382Z,17.03
2022-10-30T20:54:49.818Z,16.99
2022-10-30T20:57:16.195Z,17.00
2022-10-30T20:59:42.532Z,16.97
2022-10-30T21:02:11.552Z,16.97
2022-10-30T21:04:38.037Z,16.97
2022-10-30T21:07:04.437Z,16.97
2022-10-30T21:09:30.762Z,16.97
2022-10-30T21:11:57.206Z,16.95
2022-10-30T21:14:23.665Z,16.94
2022-10-30T21:16:50.213Z,16.94
2022-10-30T21:19:16.581Z,16.92
2022-10-30T21:21:42.917Z,16.89
2022-10-30T21:24:09.597Z,16.88
2022-10-30T21:26:37.641Z,16.86
2022-10-30T21:29:05.089Z,16.84
2022-10-30T21:31:31.731Z,16.82
2022-10-30T21:33:58.071Z,16.79
2022-10-30T21:36:24.712Z,16.79
2022-10-30T21:38:51.190Z,16.77
2022-10-30T21:41:20.059Z,16.77
2022-10-30T21:43:54.382Z,16.77
2022-10-30T21:46:22.008Z,16.75
2022-10-30T21:48:48.776Z,16.74
2022-10-30T21:51:23.821Z,16.73
2022-10-30T21:53:50.476Z,16.72
2022-10-30T21:56:22.156Z,16.72
2022-10-30T21:58:49.220Z,16.69
2022-10-30T22:01:19.203Z,16.70
2022-10-30T22:03:46.572Z,16.66
2022-10-30T22:06:15.121Z,16.65
2022-10-30T22:08:45.323Z,16.65
2022-10-30T22:11:12.332Z,16.64
2022-10-30T22:13:38.980Z,16.61
2022-10-30T22:16:07.847Z,16.61
2022-10-30T22:18:34.883Z,16.59
2022-10-30T22:21:11.928Z,16.59
2022-10-30T22:23:39.255Z,16.55
2022-10-30T22:26:17.593Z,16.53
2022-10-30T22:28:44.466Z,16.50
2022-10-30T22:31:16.614Z,16.50
2022-10-30T22:33:43.673Z,16.46
2022-10-30T22:36:17.607Z,16.45
2022-10-30T22:38:45.163Z,16.41
2022-10-30T22:41:14.834Z,16.41
2022-10-30T22:43:42.580Z,16.38
2022-10-30T22:46:09.844Z,16.38
2022-10-30T22:48:36.964Z,16.37
2022-10-30T22:51:07.675Z,16.34
2022-10-30T22:53:36.014Z,16.33
2022-10-30T22:56:21.118Z,16.33
2022-10-30T22:58:50.906Z,16.30
2022-10-30T23:01:26.830Z,16.27
2022-10-30T23:03:56.054Z,16.23
2022-10-30T23:06:22.575Z,16.20
2022-10-30T23:08:51.197Z,16.17
2022-10-30T23:11:17.565Z,16.13
2022-10-30T23:13:45.290Z,16.11
2022-10-30T23:16:16.734Z,16.10
2022-10-30T23:18:44.112Z,16.06
2022-10-30T23:21:14.254Z,16.05
2022-10-30T23:23:41.641Z,16.02
2022-10-30T23:26:13.981Z,16.00
2022-10-30T23:28:40.446Z,15.98
2022-10-30T23:31:08.762Z,15.95
2022-10-30T23:33:35.097Z,15.92
2022-10-30T23:36:03.549Z,15.90
2022-10-30T23:38:30.456Z,15.87
2022-10-30T23:40:56.838Z,15.86
2022-10-30T23:43:23.303Z,15.85
2022-10-30T23:45:49.835Z,15.84
2022-10-30T23:48:16.456Z,15.82
2022-10-30T23:50:42.810Z,15.80
2022-10-30T23:53:09.197Z,15.79
2022-10-30T23:55:35.548Z,15.80
2022-10-30T23:58:02.301Z,15.78
